OJAQ/AQJ METAR and TAF weather

Enter ICAO airport designator
Station Type Date Time Source
OJAQ METAR 2024/06/14 01:00 UTC NOAA

OJAQ 140100Z 36005KT CAVOK 32/12 Q1007 NOSIG


Station Type Date Time Source
OJAQ Decoded METAR 2024/06/14 01:00 UTC NOAA

Aqaba Airport, Jordan (OJAQ) 29-38N 035-01E 51M
Jun 13, 2024 - 09:00 PM EDT / 2024.06.14 0100 UTC
Wind: from the N (360 degrees) at 6 MPH (5 KT):0
Visibility: greater than 7 mile(s):0
Temperature: 89 F (32 C)
Dew Point: 53 F (12 C)
Relative Humidity: 29%
Pressure (altimeter): 29.74 in. Hg (1007 hPa)
ob: OJAQ 140100Z 36005KT CAVOK 32/12 Q1007 NOSIG
cycle: 1

Station Type Date Time Source
OJAQ TAF 2024/06/13 18:15 UTC NOAA